createdAt,value
2019-04-07T00:03:13.907Z,77.50
2019-04-07T00:08:19.551Z,77.70
2019-04-07T00:13:25.182Z,78.00
2019-04-07T00:18:30.827Z,78.20
2019-04-07T00:23:36.254Z,78.40
2019-04-07T00:28:42.116Z,78.80
2019-04-07T00:33:47.631Z,79.00
2019-04-07T00:38:53.087Z,79.20
2019-04-07T00:43:58.530Z,79.40
2019-04-07T00:49:04.068Z,79.60
2019-04-07T00:54:09.937Z,79.80
2019-04-07T00:59:15.452Z,80.00
2019-04-07T01:04:21.116Z,80.10
2019-04-07T01:09:26.536Z,80.40
2019-04-07T01:14:32.385Z,80.50
2019-04-07T01:19:38.121Z,80.80
2019-04-07T01:24:44.056Z,81.10
2019-04-07T01:29:49.472Z,81.30
2019-04-07T01:34:54.888Z,81.70
2019-04-07T01:40:00.452Z,81.70
2019-04-07T01:45:34.384Z,81.80
2019-04-07T01:51:04.540Z,82.00
2019-04-07T01:56:24.110Z,82.50
2019-04-07T02:01:48.128Z,82.40
2019-04-07T02:07:05.892Z,82.60
2019-04-07T02:12:33.427Z,82.50
2019-04-07T02:17:48.142Z,82.90
2019-04-07T02:23:15.462Z,82.70
2019-04-07T02:28:38.383Z,82.90
2019-04-07T02:33:48.864Z,83.10
2019-04-07T02:39:11.909Z,83.30
2019-04-07T02:44:37.026Z,83.40
2019-04-07T02:49:52.916Z,83.50
2019-04-07T02:55:15.914Z,83.60
2019-04-07T03:00:43.270Z,83.80
2019-04-07T03:06:14.664Z,83.90
2019-04-07T03:11:37.305Z,84.00
2019-04-07T03:17:00.360Z,84.20
2019-04-07T03:22:34.288Z,84.40
2019-04-07T03:27:57.369Z,84.30
2019-04-07T03:33:14.113Z,84.10
2019-04-07T03:38:31.382Z,84.00
2019-04-07T03:43:42.712Z,83.70
2019-04-07T03:48:56.467Z,83.50
2019-04-07T03:54:21.093Z,83.40
2019-04-07T03:59:54.411Z,83.20
2019-04-07T04:05:17.449Z,83.10
2019-04-07T04:10:27.231Z,83.10
2019-04-07T04:15:46.902Z,83.10
2019-04-07T04:20:52.854Z,83.10
2019-04-07T04:25:59.009Z,83.40
2019-04-07T04:31:04.736Z,83.10
2019-04-07T04:36:10.215Z,83.10
2019-04-07T04:41:16.788Z,83.30
2019-04-07T04:46:22.320Z,83.50
2019-04-07T04:51:28.176Z,83.80
2019-04-07T04:56:33.711Z,83.90
2019-04-07T05:01:39.742Z,84.10
2019-04-07T05:06:45.566Z,84.30
2019-04-07T05:11:52.785Z,84.40
2019-04-07T05:16:58.599Z,84.70
2019-04-07T05:22:04.955Z,84.90
2019-04-07T05:27:10.682Z,84.80
2019-04-07T05:32:16.895Z,84.70
2019-04-07T05:37:23.007Z,84.60
2019-04-07T05:42:28.874Z,84.30
2019-04-07T05:47:34.326Z,84.10
2019-04-07T05:52:40.815Z,83.70
2019-04-07T05:57:46.558Z,83.10
2019-04-07T06:02:52.757Z,82.30
2019-04-07T06:08:02.699Z,81.40
2019-04-07T06:13:05.450Z,80.20
2019-04-07T06:18:11.712Z,79.10
2019-04-07T06:23:17.776Z,78.00
2019-04-07T06:28:23.787Z,76.60
2019-04-07T06:33:29.741Z,73.10
2019-04-07T06:38:41.018Z,68.50
2019-04-07T06:43:43.159Z,63.80
2019-04-07T06:49:19.714Z,59.40
2019-04-07T06:54:53.503Z,56.00
2019-04-07T07:00:20.593Z,52.40
2019-04-07T07:05:53.664Z,48.70
2019-04-07T07:11:26.494Z,45.90
2019-04-07T07:16:46.150Z,43.10
2019-04-07T07:22:15.511Z,40.20
2019-04-07T07:27:17.881Z,37.10
2019-04-07T07:32:23.679Z,34.10
2019-04-07T07:37:30.058Z,31.60
2019-04-07T07:42:36.534Z,30.00
2019-04-07T07:47:42.661Z,28.10
2019-04-07T07:52:51.339Z,26.90
2019-04-07T07:57:58.914Z,26.00
2019-04-07T08:03:04.892Z,25.60
2019-04-07T08:08:11.500Z,24.00
2019-04-07T08:13:17.888Z,23.60
2019-04-07T08:18:23.772Z,23.10
2019-04-07T08:23:29.732Z,21.60
2019-04-07T08:28:36.127Z,20.40
2019-04-07T08:33:43.272Z,19.90
2019-04-07T08:38:51.785Z,19.20
2019-04-07T08:43:57.743Z,18.60
2019-04-07T08:49:03.717Z,18.10
2019-04-07T08:54:09.911Z,17.90
2019-04-07T08:59:17.057Z,17.30
2019-04-07T09:04:23.110Z,16.40
2019-04-07T09:09:34.043Z,15.40
2019-04-07T09:14:38.762Z,14.40
2019-04-07T09:20:10.566Z,14.00
2019-04-07T09:25:40.723Z,13.70
2019-04-07T09:31:04.810Z,13.40
2019-04-07T09:36:20.799Z,12.90
2019-04-07T09:41:36.415Z,12.70
2019-04-07T09:46:54.152Z,12.80
2019-04-07T09:52:22.125Z,13.60
2019-04-07T09:57:46.150Z,14.60
2019-04-07T10:03:18.274Z,17.20
2019-04-07T10:08:48.537Z,19.90
2019-04-07T10:14:22.960Z,22.90
2019-04-07T10:19:57.756Z,25.40
2019-04-07T10:25:19.972Z,27.50
2019-04-07T10:30:45.985Z,28.80
2019-04-07T10:36:19.475Z,30.00
2019-04-07T10:41:42.727Z,30.00
2019-04-07T10:47:12.920Z,30.50
2019-04-07T10:52:41.250Z,31.00
2019-04-07T10:58:03.130Z,31.10
2019-04-07T11:03:21.357Z,31.60
2019-04-07T11:08:44.445Z,32.50
2019-04-07T11:14:05.872Z,33.60
2019-04-07T11:19:20.749Z,33.10
2019-04-07T11:24:53.570Z,32.70
2019-04-07T11:30:05.366Z,32.70
2019-04-07T11:35:45.580Z,32.60
2019-04-07T11:41:15.724Z,32.30
2019-04-07T11:46:34.109Z,32.10
2019-04-07T11:51:47.867Z,31.90
2019-04-07T11:57:05.790Z,31.60
2019-04-07T12:02:30.786Z,31.60
2019-04-07T12:07:56.749Z,31.20
2019-04-07T12:13:20.032Z,31.40
2019-04-07T12:18:53.696Z,31.10
2019-04-07T12:24:29.510Z,31.40
2019-04-07T12:29:51.805Z,31.30
2019-04-07T12:35:17.177Z,30.90
2019-04-07T12:40:32.409Z,31.00
2019-04-07T12:46:09.028Z,31.50
2019-04-07T12:51:37.489Z,31.50
2019-04-07T12:56:53.441Z,31.60
2019-04-07T13:02:21.384Z,31.30
2019-04-07T13:07:48.415Z,30.90
2019-04-07T13:13:32.492Z,30.80
2019-04-07T13:18:54.402Z,30.10
2019-04-07T13:24:12.841Z,30.40
2019-04-07T13:29:40.131Z,30.90
2019-04-07T13:35:03.231Z,30.70
2019-04-07T13:40:26.291Z,30.80
2019-04-07T13:45:49.436Z,30.80
2019-04-07T13:51:12.956Z,30.20
2019-04-07T13:56:37.090Z,30.00
2019-04-07T14:01:59.134Z,30.40
2019-04-07T14:07:25.220Z,30.10
2019-04-07T14:12:50.553Z,30.00
2019-04-07T14:18:04.750Z,30.00
2019-04-07T14:23:35.347Z,30.20
2019-04-07T14:29:08.692Z,30.00
2019-04-07T14:34:45.490Z,30.20
2019-04-07T14:40:03.606Z,30.00
2019-04-07T14:45:40.628Z,29.50
2019-04-07T14:51:08.204Z,29.10
2019-04-07T14:56:21.925Z,29.40
2019-04-07T15:01:52.378Z,29.50
2019-04-07T15:07:14.148Z,29.60
2019-04-07T15:12:26.649Z,30.00
2019-04-07T15:17:33.006Z,30.20
2019-04-07T15:22:38.966Z,30.60
2019-04-07T15:27:45.568Z,30.80
2019-04-07T15:32:51.592Z,31.00
2019-04-07T15:37:57.227Z,31.10
2019-04-07T15:43:05.531Z,31.30
2019-04-07T15:48:10.342Z,31.60
2019-04-07T15:53:16.626Z,31.70
2019-04-07T15:58:22.615Z,31.50
2019-04-07T16:03:28.768Z,31.40
2019-04-07T16:08:34.942Z,31.30
2019-04-07T16:13:40.545Z,31.40
2019-04-07T16:18:46.635Z,31.80
2019-04-07T16:23:54.010Z,31.90
2019-04-07T16:28:59.275Z,32.10
2019-04-07T16:34:07.561Z,32.10
2019-04-07T16:39:11.928Z,32.40
2019-04-07T16:44:17.474Z,32.70
2019-04-07T16:49:23.640Z,33.30
2019-04-07T16:54:30.183Z,33.00
2019-04-07T16:59:36.651Z,33.30
2019-04-07T17:04:43.065Z,33.50
2019-04-07T17:09:48.919Z,34.30
2019-04-07T17:14:54.403Z,33.90
2019-04-07T17:20:00.672Z,34.10
2019-04-07T17:25:09.246Z,34.50
2019-04-07T17:30:16.856Z,34.60
2019-04-07T17:35:23.250Z,34.90
2019-04-07T17:40:32.857Z,35.20
2019-04-07T17:45:56.335Z,35.50
2019-04-07T17:51:16.658Z,36.00
2019-04-07T17:56:36.916Z,36.30
2019-04-07T18:02:04.473Z,36.70
2019-04-07T18:07:35.635Z,37.00
2019-04-07T18:13:07.429Z,37.40
2019-04-07T18:18:31.819Z,37.80
2019-04-07T18:23:58.762Z,38.20
2019-04-07T18:29:11.212Z,38.50
2019-04-07T18:34:47.297Z,39.00
2019-04-07T18:40:21.111Z,39.50
2019-04-07T18:45:36.990Z,39.80
2019-04-07T18:51:02.979Z,40.20
2019-04-07T18:56:27.165Z,40.70
2019-04-07T19:02:04.343Z,41.20
2019-04-07T19:07:30.460Z,41.60
2019-04-07T19:13:03.253Z,41.90
2019-04-07T19:18:23.547Z,42.20
2019-04-07T19:23:58.666Z,42.60
2019-04-07T19:29:25.057Z,42.90
2019-04-07T19:35:02.173Z,43.20
2019-04-07T19:40:26.941Z,43.60
2019-04-07T19:45:45.136Z,44.10
2019-04-07T19:51:08.781Z,44.60
2019-04-07T19:56:48.171Z,45.10
2019-04-07T20:02:15.692Z,45.60
2019-04-07T20:07:46.239Z,46.10
2019-04-07T20:13:15.339Z,46.30
2019-04-07T20:18:39.859Z,46.60
2019-04-07T20:23:55.226Z,46.80
2019-04-07T20:29:12.005Z,46.80
2019-04-07T20:34:51.440Z,47.20
2019-04-07T20:40:10.289Z,47.50
2019-04-07T20:45:47.208Z,47.80
2019-04-07T20:51:06.156Z,48.20
2019-04-07T20:56:31.448Z,48.90
2019-04-07T21:02:02.502Z,49.40
2019-04-07T21:07:28.914Z,49.90
2019-04-07T21:12:52.759Z,50.30
2019-04-07T21:18:12.613Z,50.80
2019-04-07T21:23:39.847Z,51.10
2019-04-07T21:29:10.500Z,51.50
2019-04-07T21:34:36.497Z,51.50
2019-04-07T21:40:10.034Z,51.80
2019-04-07T21:45:39.867Z,52.00
2019-04-07T21:51:00.968Z,52.20
2019-04-07T21:56:31.178Z,52.60
2019-04-07T22:01:47.568Z,52.80
2019-04-07T22:07:11.166Z,53.00
2019-04-07T22:12:16.911Z,53.20
2019-04-07T22:17:23.403Z,53.40
2019-04-07T22:22:29.067Z,53.80
2019-04-07T22:27:34.704Z,54.20
2019-04-07T22:32:40.721Z,54.60
2019-04-07T22:37:48.344Z,55.10
2019-04-07T22:42:54.158Z,55.70
2019-04-07T22:47:59.788Z,56.00
2019-04-07T22:53:05.258Z,56.40
2019-04-07T22:58:10.698Z,57.00
2019-04-07T23:03:16.183Z,57.50
2019-04-07T23:08:21.783Z,57.90
2019-04-07T23:13:27.983Z,58.30
2019-04-07T23:18:33.553Z,58.80
2019-04-07T23:23:39.686Z,59.20
2019-04-07T23:28:47.061Z,59.60
2019-04-07T23:33:52.638Z,59.90
2019-04-07T23:38:58.155Z,60.30
2019-04-07T23:44:03.581Z,61.50
2019-04-07T23:49:09.933Z,61.80
2019-04-07T23:54:16.439Z,61.80
2019-04-07T23:59:22.792Z,62.80
